sensor_id;sensor_type;location;lat;lon;timestamp;P1;durP1;ratioP1;P2;durP2;ratioP2
1765;SDS011;880;52.452;8.656;2023-07-31T00:00:15;6.95;;;6.35;;
1765;SDS011;880;52.452;8.656;2023-07-31T00:02:42;6.85;;;5.65;;
1765;SDS011;880;52.452;8.656;2023-07-31T00:05:09;6.85;;;6.10;;
1765;SDS011;880;52.452;8.656;2023-07-31T00:07:36;7.60;;;6.03;;
1765;SDS011;880;52.452;8.656;2023-07-31T00:10:03;7.80;;;5.40;;
1765;SDS011;880;52.452;8.656;2023-07-31T00:12:31;7.90;;;7.18;;
1765;SDS011;880;52.452;8.656;2023-07-31T00:14:59;9.45;;;6.28;;
1765;SDS011;880;52.452;8.656;2023-07-31T00:17:26;7.80;;;7.07;;
1765;SDS011;880;52.452;8.656;2023-07-31T00:19:53;6.90;;;6.30;;
1765;SDS011;880;52.452;8.656;2023-07-31T00:22:20;6.47;;;5.97;;
1765;SDS011;880;52.452;8.656;2023-07-31T00:24:47;7.07;;;5.90;;
1765;SDS011;880;52.452;8.656;2023-07-31T00:27:14;6.57;;;5.93;;
1765;SDS011;880;52.452;8.656;2023-07-31T00:29:42;6.20;;;5.53;;
1765;SDS011;880;52.452;8.656;2023-07-31T00:32:09;5.38;;;4.97;;
1765;SDS011;880;52.452;8.656;2023-07-31T00:34:36;6.00;;;5.50;;
1765;SDS011;880;52.452;8.656;2023-07-31T00:37:04;6.72;;;5.80;;
1765;SDS011;880;52.452;8.656;2023-07-31T00:39:31;6.65;;;5.55;;
1765;SDS011;880;52.452;8.656;2023-07-31T00:42:00;5.85;;;5.35;;
1765;SDS011;880;52.452;8.656;2023-07-31T00:44:27;5.50;;;5.00;;
1765;SDS011;880;52.452;8.656;2023-07-31T00:46:54;5.60;;;5.18;;
1765;SDS011;880;52.452;8.656;2023-07-31T00:49:29;5.88;;;5.32;;
1765;SDS011;880;52.452;8.656;2023-07-31T00:51:57;5.20;;;4.65;;
1765;SDS011;880;52.452;8.656;2023-07-31T00:54:24;6.68;;;5.30;;
1765;SDS011;880;52.452;8.656;2023-07-31T00:56:52;6.57;;;5.75;;
1765;SDS011;880;52.452;8.656;2023-07-31T00:59:21;6.65;;;5.75;;
1765;SDS011;880;52.452;8.656;2023-07-31T01:01:48;5.55;;;5.05;;
1765;SDS011;880;52.452;8.656;2023-07-31T01:04:15;6.22;;;5.63;;
1765;SDS011;880;52.452;8.656;2023-07-31T01:06:44;6.63;;;5.65;;
1765;SDS011;880;52.452;8.656;2023-07-31T01:12:03;5.85;;;5.18;;
1765;SDS011;880;52.452;8.656;2023-07-31T01:14:33;7.35;;;5.68;;
1765;SDS011;880;52.452;8.656;2023-07-31T01:17:00;7.80;;;6.22;;
1765;SDS011;880;52.452;8.656;2023-07-31T01:19:27;6.80;;;6.20;;
1765;SDS011;880;52.452;8.656;2023-07-31T01:25:31;6.32;;;5.72;;
1765;SDS011;880;52.452;8.656;2023-07-31T01:29:10;7.25;;;6.35;;
1765;SDS011;880;52.452;8.656;2023-07-31T01:31:52;7.45;;;6.82;;
1765;SDS011;880;52.452;8.656;2023-07-31T01:34:21;7.72;;;7.00;;
1765;SDS011;880;52.452;8.656;2023-07-31T01:36:49;6.85;;;6.15;;
1765;SDS011;880;52.452;8.656;2023-07-31T01:39:16;7.55;;;6.75;;
1765;SDS011;880;52.452;8.656;2023-07-31T01:41:43;7.22;;;6.57;;
1765;SDS011;880;52.452;8.656;2023-07-31T01:44:10;8.73;;;7.20;;
1765;SDS011;880;52.452;8.656;2023-07-31T01:46:37;7.60;;;6.78;;
1765;SDS011;880;52.452;8.656;2023-07-31T01:49:05;8.77;;;8.05;;
1765;SDS011;880;52.452;8.656;2023-07-31T01:51:32;8.25;;;7.55;;
1765;SDS011;880;52.452;8.656;2023-07-31T01:54:01;7.57;;;6.82;;
1765;SDS011;880;52.452;8.656;2023-07-31T01:56:28;7.65;;;7.00;;
1765;SDS011;880;52.452;8.656;2023-07-31T01:58:55;9.15;;;7.53;;
1765;SDS011;880;52.452;8.656;2023-07-31T02:01:22;7.78;;;7.07;;
1765;SDS011;880;52.452;8.656;2023-07-31T02:03:50;6.97;;;6.30;;
1765;SDS011;880;52.452;8.656;2023-07-31T02:06:17;7.47;;;6.78;;
1765;SDS011;880;52.452;8.656;2023-07-31T02:08:44;6.32;;;5.82;;
1765;SDS011;880;52.452;8.656;2023-07-31T02:11:12;7.53;;;6.82;;
1765;SDS011;880;52.452;8.656;2023-07-31T02:13:38;7.10;;;6.50;;
1765;SDS011;880;52.452;8.656;2023-07-31T02:16:05;8.45;;;7.75;;
1765;SDS011;880;52.452;8.656;2023-07-31T02:18:33;7.68;;;7.03;;
1765;SDS011;880;52.452;8.656;2023-07-31T02:21:00;7.65;;;7.03;;
1765;SDS011;880;52.452;8.656;2023-07-31T02:23:27;7.95;;;7.15;;
1765;SDS011;880;52.452;8.656;2023-07-31T02:25:54;7.32;;;6.57;;
1765;SDS011;880;52.452;8.656;2023-07-31T02:28:22;8.02;;;7.25;;
1765;SDS011;880;52.452;8.656;2023-07-31T02:30:50;7.30;;;6.70;;
1765;SDS011;880;52.452;8.656;2023-07-31T02:33:18;7.43;;;6.82;;
1765;SDS011;880;52.452;8.656;2023-07-31T02:35:45;6.25;;;5.68;;
1765;SDS011;880;52.452;8.656;2023-07-31T02:38:12;7.55;;;6.85;;
1765;SDS011;880;52.452;8.656;2023-07-31T02:40:40;7.72;;;5.65;;
1765;SDS011;880;52.452;8.656;2023-07-31T02:43:08;6.15;;;5.65;;
1765;SDS011;880;52.452;8.656;2023-07-31T02:45:38;6.80;;;6.20;;
1765;SDS011;880;52.452;8.656;2023-07-31T02:48:05;6.10;;;5.60;;
1765;SDS011;880;52.452;8.656;2023-07-31T02:50:32;6.22;;;5.72;;
1765;SDS011;880;52.452;8.656;2023-07-31T02:52:59;5.57;;;5.03;;
1765;SDS011;880;52.452;8.656;2023-07-31T02:55:26;5.80;;;5.32;;
1765;SDS011;880;52.452;8.656;2023-07-31T02:57:54;5.68;;;5.28;;
1765;SDS011;880;52.452;8.656;2023-07-31T03:00:21;5.57;;;5.18;;
1765;SDS011;880;52.452;8.656;2023-07-31T03:02:48;5.32;;;4.82;;
1765;SDS011;880;52.452;8.656;2023-07-31T03:05:15;5.45;;;4.97;;
1765;SDS011;880;52.452;8.656;2023-07-31T03:07:42;4.53;;;4.20;;
1765;SDS011;880;52.452;8.656;2023-07-31T03:10:09;4.68;;;4.30;;
1765;SDS011;880;52.452;8.656;2023-07-31T03:12:36;4.30;;;3.90;;
1765;SDS011;880;52.452;8.656;2023-07-31T03:15:03;4.80;;;4.20;;
1765;SDS011;880;52.452;8.656;2023-07-31T03:17:31;4.47;;;4.00;;
1765;SDS011;880;52.452;8.656;2023-07-31T03:19:58;4.18;;;3.70;;
1765;SDS011;880;52.452;8.656;2023-07-31T03:22:25;3.28;;;3.08;;
1765;SDS011;880;52.452;8.656;2023-07-31T03:24:52;4.00;;;3.70;;
1765;SDS011;880;52.452;8.656;2023-07-31T03:27:19;4.22;;;3.90;;
1765;SDS011;880;52.452;8.656;2023-07-31T03:29:46;4.57;;;4.18;;
1765;SDS011;880;52.452;8.656;2023-07-31T03:32:13;4.28;;;3.88;;
1765;SDS011;880;52.452;8.656;2023-07-31T03:34:40;3.70;;;3.40;;
1765;SDS011;880;52.452;8.656;2023-07-31T03:37:07;9.48;;;3.40;;
1765;SDS011;880;52.452;8.656;2023-07-31T03:39:35;3.22;;;3.03;;
1765;SDS011;880;52.452;8.656;2023-07-31T03:42:02;2.20;;;2.10;;
1765;SDS011;880;52.452;8.656;2023-07-31T03:44:29;5.60;;;2.55;;
1765;SDS011;880;52.452;8.656;2023-07-31T03:46:56;3.72;;;2.60;;
1765;SDS011;880;52.452;8.656;2023-07-31T03:49:23;2.92;;;2.72;;
1765;SDS011;880;52.452;8.656;2023-07-31T03:51:50;2.97;;;2.53;;
1765;SDS011;880;52.452;8.656;2023-07-31T03:54:17;2.45;;;2.25;;
1765;SDS011;880;52.452;8.656;2023-07-31T03:56:44;3.80;;;1.83;;
1765;SDS011;880;52.452;8.656;2023-07-31T03:59:11;2.08;;;1.98;;
1765;SDS011;880;52.452;8.656;2023-07-31T04:01:38;2.30;;;2.17;;
1765;SDS011;880;52.452;8.656;2023-07-31T04:04:05;2.33;;;2.22;;
1765;SDS011;880;52.452;8.656;2023-07-31T04:06:32;2.58;;;2.30;;
1765;SDS011;880;52.452;8.656;2023-07-31T04:08:59;2.83;;;2.72;;
1765;SDS011;880;52.452;8.656;2023-07-31T04:11:26;3.05;;;2.83;;
1765;SDS011;880;52.452;8.656;2023-07-31T04:13:53;3.00;;;2.80;;
1765;SDS011;880;52.452;8.656;2023-07-31T04:16:20;2.35;;;2.25;;
1765;SDS011;880;52.452;8.656;2023-07-31T04:18:47;3.55;;;2.60;;
1765;SDS011;880;52.452;8.656;2023-07-31T04:21:14;2.55;;;2.45;;
1765;SDS011;880;52.452;8.656;2023-07-31T04:23:41;2.28;;;2.17;;
1765;SDS011;880;52.452;8.656;2023-07-31T04:26:08;2.72;;;2.00;;
1765;SDS011;880;52.452;8.656;2023-07-31T04:28:35;3.00;;;2.75;;
1765;SDS011;880;52.452;8.656;2023-07-31T04:31:02;2.30;;;2.20;;
1765;SDS011;880;52.452;8.656;2023-07-31T04:33:30;2.58;;;2.47;;
1765;SDS011;880;52.452;8.656;2023-07-31T04:35:58;2.28;;;2.17;;
1765;SDS011;880;52.452;8.656;2023-07-31T04:38:25;4.50;;;4.30;;
1765;SDS011;880;52.452;8.656;2023-07-31T04:40:52;2.40;;;2.30;;
1765;SDS011;880;52.452;8.656;2023-07-31T04:43:19;3.15;;;2.95;;
1765;SDS011;880;52.452;8.656;2023-07-31T04:45:46;2.95;;;2.85;;
1765;SDS011;880;52.452;8.656;2023-07-31T04:48:16;2.92;;;2.75;;
1765;SDS011;880;52.452;8.656;2023-07-31T04:50:43;2.80;;;2.70;;
1765;SDS011;880;52.452;8.656;2023-07-31T04:53:10;3.28;;;2.88;;
1765;SDS011;880;52.452;8.656;2023-07-31T04:55:38;3.63;;;3.33;;
1765;SDS011;880;52.452;8.656;2023-07-31T04:58:05;5.60;;;5.20;;
1765;SDS011;880;52.452;8.656;2023-07-31T05:00:32;4.88;;;4.43;;
1765;SDS011;880;52.452;8.656;2023-07-31T05:02:59;4.30;;;3.90;;
1765;SDS011;880;52.452;8.656;2023-07-31T05:05:26;6.13;;;5.53;;
1765;SDS011;880;52.452;8.656;2023-07-31T05:07:53;9.38;;;7.20;;
1765;SDS011;880;52.452;8.656;2023-07-31T05:10:20;8.65;;;7.07;;
1765;SDS011;880;52.452;8.656;2023-07-31T05:12:47;10.93;;;8.00;;
1765;SDS011;880;52.452;8.656;2023-07-31T05:15:14;11.75;;;9.45;;
1765;SDS011;880;52.452;8.656;2023-07-31T05:17:41;11.27;;;8.65;;
1765;SDS011;880;52.452;8.656;2023-07-31T05:20:09;8.90;;;8.10;;
1765;SDS011;880;52.452;8.656;2023-07-31T05:22:36;4.78;;;4.35;;
1765;SDS011;880;52.452;8.656;2023-07-31T05:25:03;5.95;;;3.92;;
1765;SDS011;880;52.452;8.656;2023-07-31T05:27:32;5.30;;;4.55;;
1765;SDS011;880;52.452;8.656;2023-07-31T05:29:59;5.22;;;4.55;;
1765;SDS011;880;52.452;8.656;2023-07-31T05:32:26;5.40;;;4.90;;
1765;SDS011;880;52.452;8.656;2023-07-31T05:34:53;7.10;;;5.00;;
1765;SDS011;880;52.452;8.656;2023-07-31T05:37:21;6.47;;;5.97;;
1765;SDS011;880;52.452;8.656;2023-07-31T05:39:48;6.60;;;4.55;;
1765;SDS011;880;52.452;8.656;2023-07-31T05:42:15;5.82;;;5.25;;
1765;SDS011;880;52.452;8.656;2023-07-31T05:44:42;5.75;;;5.10;;
1765;SDS011;880;52.452;8.656;2023-07-31T05:47:10;7.10;;;5.43;;
1765;SDS011;880;52.452;8.656;2023-07-31T05:49:37;6.60;;;5.32;;
1765;SDS011;880;52.452;8.656;2023-07-31T05:52:04;6.55;;;5.30;;
1765;SDS011;880;52.452;8.656;2023-07-31T05:54:31;9.57;;;5.38;;
1765;SDS011;880;52.452;8.656;2023-07-31T05:56:59;7.80;;;5.40;;
1765;SDS011;880;52.452;8.656;2023-07-31T05:59:26;6.53;;;5.45;;
1765;SDS011;880;52.452;8.656;2023-07-31T06:01:53;7.28;;;5.60;;
1765;SDS011;880;52.452;8.656;2023-07-31T06:04:20;10.50;;;5.78;;
1765;SDS011;880;52.452;8.656;2023-07-31T06:06:50;7.72;;;5.35;;
1765;SDS011;880;52.452;8.656;2023-07-31T06:09:18;10.70;;;6.82;;
1765;SDS011;880;52.452;8.656;2023-07-31T06:11:46;8.70;;;6.18;;
1765;SDS011;880;52.452;8.656;2023-07-31T06:14:13;12.77;;;7.55;;
1765;SDS011;880;52.452;8.656;2023-07-31T06:16:41;13.38;;;7.40;;
1765;SDS011;880;52.452;8.656;2023-07-31T06:19:08;11.50;;;7.25;;
1765;SDS011;880;52.452;8.656;2023-07-31T06:21:39;10.82;;;6.25;;
1765;SDS011;880;52.452;8.656;2023-07-31T06:24:08;15.07;;;7.55;;
1765;SDS011;880;52.452;8.656;2023-07-31T06:26:35;13.63;;;7.80;;
1765;SDS011;880;52.452;8.656;2023-07-31T06:29:03;17.83;;;9.32;;
1765;SDS011;880;52.452;8.656;2023-07-31T06:31:30;14.60;;;9.50;;
1765;SDS011;880;52.452;8.656;2023-07-31T06:33:57;15.10;;;9.27;;
1765;SDS011;880;52.452;8.656;2023-07-31T06:36:24;28.27;;;18.38;;
1765;SDS011;880;52.452;8.656;2023-07-31T06:38:51;29.70;;;16.08;;
1765;SDS011;880;52.452;8.656;2023-07-31T06:41:18;25.17;;;11.40;;
1765;SDS011;880;52.452;8.656;2023-07-31T06:43:45;20.85;;;10.35;;
1765;SDS011;880;52.452;8.656;2023-07-31T06:46:12;19.33;;;10.07;;
1765;SDS011;880;52.452;8.656;2023-07-31T06:48:40;28.05;;;11.02;;
1765;SDS011;880;52.452;8.656;2023-07-31T06:51:07;20.65;;;10.50;;
1765;SDS011;880;52.452;8.656;2023-07-31T06:53:34;21.83;;;11.32;;
1765;SDS011;880;52.452;8.656;2023-07-31T06:56:01;13.15;;;7.70;;
1765;SDS011;880;52.452;8.656;2023-07-31T06:58:28;17.05;;;10.82;;
1765;SDS011;880;52.452;8.656;2023-07-31T07:00:55;12.10;;;7.68;;
1765;SDS011;880;52.452;8.656;2023-07-31T07:03:22;19.00;;;11.80;;
1765;SDS011;880;52.452;8.656;2023-07-31T07:05:49;18.50;;;10.75;;
1765;SDS011;880;52.452;8.656;2023-07-31T07:08:16;23.92;;;13.43;;
1765;SDS011;880;52.452;8.656;2023-07-31T07:10:43;18.30;;;9.00;;
1765;SDS011;880;52.452;8.656;2023-07-31T07:13:10;18.33;;;9.88;;
1765;SDS011;880;52.452;8.656;2023-07-31T07:15:39;10.07;;;7.55;;
1765;SDS011;880;52.452;8.656;2023-07-31T07:18:06;15.35;;;8.45;;
1765;SDS011;880;52.452;8.656;2023-07-31T07:20:34;12.68;;;8.23;;
1765;SDS011;880;52.452;8.656;2023-07-31T07:23:01;14.13;;;8.27;;
1765;SDS011;880;52.452;8.656;2023-07-31T07:25:28;15.38;;;8.80;;
1765;SDS011;880;52.452;8.656;2023-07-31T07:27:55;11.75;;;8.45;;
1765;SDS011;880;52.452;8.656;2023-07-31T07:30:22;16.75;;;8.55;;
1765;SDS011;880;52.452;8.656;2023-07-31T07:32:51;14.32;;;7.82;;
1765;SDS011;880;52.452;8.656;2023-07-31T07:35:18;12.02;;;7.60;;
1765;SDS011;880;52.452;8.656;2023-07-31T07:37:47;15.18;;;7.85;;
1765;SDS011;880;52.452;8.656;2023-07-31T07:40:18;13.40;;;8.15;;
1765;SDS011;880;52.452;8.656;2023-07-31T07:42:46;15.60;;;9.43;;
1765;SDS011;880;52.452;8.656;2023-07-31T07:45:13;13.82;;;7.07;;
1765;SDS011;880;52.452;8.656;2023-07-31T07:47:40;16.63;;;7.22;;
1765;SDS011;880;52.452;8.656;2023-07-31T07:50:08;17.13;;;7.40;;
1765;SDS011;880;52.452;8.656;2023-07-31T07:52:35;10.55;;;6.35;;
1765;SDS011;880;52.452;8.656;2023-07-31T07:55:03;9.73;;;7.28;;
1765;SDS011;880;52.452;8.656;2023-07-31T07:57:30;9.75;;;7.05;;
1765;SDS011;880;52.452;8.656;2023-07-31T07:59:57;12.77;;;7.05;;
1765;SDS011;880;52.452;8.656;2023-07-31T08:02:24;14.32;;;7.07;;
1765;SDS011;880;52.452;8.656;2023-07-31T08:04:51;15.43;;;6.72;;
1765;SDS011;880;52.452;8.656;2023-07-31T08:07:18;13.10;;;8.95;;
1765;SDS011;880;52.452;8.656;2023-07-31T08:09:45;10.68;;;7.55;;
1765;SDS011;880;52.452;8.656;2023-07-31T08:12:12;11.32;;;6.57;;
1765;SDS011;880;52.452;8.656;2023-07-31T08:14:39;8.55;;;6.00;;
1765;SDS011;880;52.452;8.656;2023-07-31T08:17:06;7.60;;;5.93;;
1765;SDS011;880;52.452;8.656;2023-07-31T08:19:33;11.52;;;7.50;;
1765;SDS011;880;52.452;8.656;2023-07-31T08:22:00;13.20;;;6.93;;
1765;SDS011;880;52.452;8.656;2023-07-31T08:24:27;11.38;;;6.95;;
1765;SDS011;880;52.452;8.656;2023-07-31T08:26:54;11.55;;;7.53;;
1765;SDS011;880;52.452;8.656;2023-07-31T08:29:21;11.15;;;6.50;;
1765;SDS011;880;52.452;8.656;2023-07-31T08:31:48;10.82;;;6.60;;
1765;SDS011;880;52.452;8.656;2023-07-31T08:34:15;6.75;;;6.03;;
1765;SDS011;880;52.452;8.656;2023-07-31T08:36:42;7.75;;;6.15;;
1765;SDS011;880;52.452;8.656;2023-07-31T08:39:09;7.85;;;6.00;;
1765;SDS011;880;52.452;8.656;2023-07-31T08:41:37;6.75;;;5.80;;
1765;SDS011;880;52.452;8.656;2023-07-31T08:44:07;5.72;;;5.18;;
1765;SDS011;880;52.452;8.656;2023-07-31T08:46:36;7.90;;;5.40;;
1765;SDS011;880;52.452;8.656;2023-07-31T08:49:05;8.65;;;6.57;;
1765;SDS011;880;52.452;8.656;2023-07-31T08:51:34;8.38;;;6.40;;
1765;SDS011;880;52.452;8.656;2023-07-31T08:54:01;6.80;;;6.18;;
1765;SDS011;880;52.452;8.656;2023-07-31T08:56:31;5.00;;;4.50;;
1765;SDS011;880;52.452;8.656;2023-07-31T08:58:59;9.10;;;7.78;;
1765;SDS011;880;52.452;8.656;2023-07-31T09:01:30;8.77;;;6.72;;
1765;SDS011;880;52.452;8.656;2023-07-31T09:04:01;6.63;;;6.03;;
1765;SDS011;880;52.452;8.656;2023-07-31T09:06:30;6.38;;;5.97;;
1765;SDS011;880;52.452;8.656;2023-07-31T09:08:58;5.78;;;5.32;;
1765;SDS011;880;52.452;8.656;2023-07-31T09:11:25;7.50;;;6.72;;
1765;SDS011;880;52.452;8.656;2023-07-31T09:13:53;6.95;;;6.32;;
1765;SDS011;880;52.452;8.656;2023-07-31T09:16:29;6.40;;;5.90;;
1765;SDS011;880;52.452;8.656;2023-07-31T09:18:58;6.90;;;6.28;;
1765;SDS011;880;52.452;8.656;2023-07-31T09:21:27;7.82;;;6.13;;
1765;SDS011;880;52.452;8.656;2023-07-31T09:23:55;7.03;;;6.40;;
1765;SDS011;880;52.452;8.656;2023-07-31T09:26:32;6.45;;;5.93;;
1765;SDS011;880;52.452;8.656;2023-07-31T09:29:04;6.55;;;6.03;;
1765;SDS011;880;52.452;8.656;2023-07-31T09:31:41;5.60;;;5.20;;
1765;SDS011;880;52.452;8.656;2023-07-31T09:34:11;6.22;;;5.72;;
1765;SDS011;880;52.452;8.656;2023-07-31T09:36:40;5.32;;;4.93;;
1765;SDS011;880;52.452;8.656;2023-07-31T09:39:12;9.70;;;5.70;;
1765;SDS011;880;52.452;8.656;2023-07-31T09:41:42;5.13;;;4.72;;
1765;SDS011;880;52.452;8.656;2023-07-31T09:44:12;5.75;;;5.25;;
1765;SDS011;880;52.452;8.656;2023-07-31T09:46:39;6.22;;;5.82;;
1765;SDS011;880;52.452;8.656;2023-07-31T09:49:11;5.90;;;5.30;;
1765;SDS011;880;52.452;8.656;2023-07-31T09:51:40;5.30;;;4.90;;
1765;SDS011;880;52.452;8.656;2023-07-31T09:54:12;5.90;;;5.50;;
1765;SDS011;880;52.452;8.656;2023-07-31T09:56:46;5.28;;;4.88;;
1765;SDS011;880;52.452;8.656;2023-07-31T09:59:16;5.88;;;5.47;;
1765;SDS011;880;52.452;8.656;2023-07-31T10:01:49;4.45;;;4.10;;
1765;SDS011;880;52.452;8.656;2023-07-31T10:04:17;4.88;;;4.47;;
1765;SDS011;880;52.452;8.656;2023-07-31T10:06:52;4.65;;;4.35;;
1765;SDS011;880;52.452;8.656;2023-07-31T10:09:21;5.30;;;4.93;;
1765;SDS011;880;52.452;8.656;2023-07-31T10:11:58;5.13;;;4.82;;
1765;SDS011;880;52.452;8.656;2023-07-31T10:14:27;4.85;;;4.55;;
1765;SDS011;880;52.452;8.656;2023-07-31T10:16:55;5.00;;;4.72;;
1765;SDS011;880;52.452;8.656;2023-07-31T10:19:23;5.15;;;4.85;;
1765;SDS011;880;52.452;8.656;2023-07-31T10:21:51;5.75;;;5.35;;
1765;SDS011;880;52.452;8.656;2023-07-31T10:24:18;4.55;;;4.30;;
1765;SDS011;880;52.452;8.656;2023-07-31T10:26:46;5.55;;;5.20;;
1765;SDS011;880;52.452;8.656;2023-07-31T10:29:15;5.63;;;5.32;;
1765;SDS011;880;52.452;8.656;2023-07-31T10:31:44;5.50;;;5.20;;
1765;SDS011;880;52.452;8.656;2023-07-31T10:34:13;5.25;;;4.88;;
1765;SDS011;880;52.452;8.656;2023-07-31T10:36:41;5.82;;;5.43;;
1765;SDS011;880;52.452;8.656;2023-07-31T10:42:14;5.93;;;5.53;;
1765;SDS011;880;52.452;8.656;2023-07-31T10:44:46;5.70;;;5.40;;
1765;SDS011;880;52.452;8.656;2023-07-31T10:47:16;5.75;;;5.45;;
1765;SDS011;880;52.452;8.656;2023-07-31T10:49:44;6.55;;;6.05;;
1765;SDS011;880;52.452;8.656;2023-07-31T10:52:13;6.22;;;5.88;;
1765;SDS011;880;52.452;8.656;2023-07-31T10:54:40;6.25;;;5.75;;
1765;SDS011;880;52.452;8.656;2023-07-31T10:57:25;6.82;;;6.43;;
1765;SDS011;880;52.452;8.656;2023-07-31T10:59:52;5.72;;;5.43;;
1765;SDS011;880;52.452;8.656;2023-07-31T11:02:56;5.53;;;5.13;;
1765;SDS011;880;52.452;8.656;2023-07-31T11:05:40;6.95;;;6.55;;
1765;SDS011;880;52.452;8.656;2023-07-31T11:08:32;5.22;;;4.97;;
1765;SDS011;880;52.452;8.656;2023-07-31T11:13:32;5.25;;;4.95;;
1765;SDS011;880;52.452;8.656;2023-07-31T11:16:12;4.70;;;4.50;;
1765;SDS011;880;52.452;8.656;2023-07-31T11:18:42;5.13;;;4.82;;
1765;SDS011;880;52.452;8.656;2023-07-31T11:21:21;5.07;;;4.75;;
1765;SDS011;880;52.452;8.656;2023-07-31T11:23:51;6.60;;;6.13;;
1765;SDS011;880;52.452;8.656;2023-07-31T11:26:24;5.97;;;5.47;;
1765;SDS011;880;52.452;8.656;2023-07-31T11:28:51;5.80;;;5.47;;
1765;SDS011;880;52.452;8.656;2023-07-31T11:31:19;7.05;;;6.53;;
1765;SDS011;880;52.452;8.656;2023-07-31T11:33:46;8.35;;;7.75;;
1765;SDS011;880;52.452;8.656;2023-07-31T11:36:20;6.78;;;6.25;;
1765;SDS011;880;52.452;8.656;2023-07-31T11:38:47;5.50;;;5.20;;
1765;SDS011;880;52.452;8.656;2023-07-31T11:41:15;5.75;;;5.45;;
1765;SDS011;880;52.452;8.656;2023-07-31T11:43:43;6.25;;;5.85;;
1765;SDS011;880;52.452;8.656;2023-07-31T11:46:12;6.65;;;6.25;;
1765;SDS011;880;52.452;8.656;2023-07-31T11:51:10;6.40;;;6.00;;
1765;SDS011;880;52.452;8.656;2023-07-31T11:56:19;7.85;;;6.82;;
1765;SDS011;880;52.452;8.656;2023-07-31T11:58:53;6.57;;;6.15;;
1765;SDS011;880;52.452;8.656;2023-07-31T12:01:26;6.80;;;6.25;;
1765;SDS011;880;52.452;8.656;2023-07-31T12:03:54;5.28;;;4.95;;
1765;SDS011;880;52.452;8.656;2023-07-31T12:06:26;6.65;;;6.20;;
1765;SDS011;880;52.452;8.656;2023-07-31T12:09:04;7.32;;;6.63;;
1765;SDS011;880;52.452;8.656;2023-07-31T12:11:42;5.90;;;5.60;;
1765;SDS011;880;52.452;8.656;2023-07-31T12:14:28;6.20;;;5.90;;
1765;SDS011;880;52.452;8.656;2023-07-31T12:19:28;6.35;;;5.95;;
1765;SDS011;880;52.452;8.656;2023-07-31T12:21:57;6.30;;;5.80;;
1765;SDS011;880;52.452;8.656;2023-07-31T12:26:53;6.18;;;5.78;;
1765;SDS011;880;52.452;8.656;2023-07-31T12:29:21;6.78;;;6.38;;
1765;SDS011;880;52.452;8.656;2023-07-31T12:31:48;6.18;;;5.72;;
1765;SDS011;880;52.452;8.656;2023-07-31T12:34:18;6.10;;;5.78;;
1765;SDS011;880;52.452;8.656;2023-07-31T12:36:47;6.15;;;5.75;;
1765;SDS011;880;52.452;8.656;2023-07-31T12:41:44;6.40;;;6.00;;
1765;SDS011;880;52.452;8.656;2023-07-31T12:44:11;6.45;;;5.95;;
1765;SDS011;880;52.452;8.656;2023-07-31T12:46:38;6.40;;;6.00;;
1765;SDS011;880;52.452;8.656;2023-07-31T12:49:08;6.13;;;5.43;;
1765;SDS011;880;52.452;8.656;2023-07-31T12:51:35;6.30;;;5.90;;
1765;SDS011;880;52.452;8.656;2023-07-31T12:54:02;6.28;;;5.88;;
1765;SDS011;880;52.452;8.656;2023-07-31T12:56:30;6.18;;;5.72;;
1765;SDS011;880;52.452;8.656;2023-07-31T12:58:58;7.45;;;6.95;;
1765;SDS011;880;52.452;8.656;2023-07-31T13:01:25;6.95;;;6.45;;
1765;SDS011;880;52.452;8.656;2023-07-31T13:03:53;6.93;;;6.28;;
1765;SDS011;880;52.452;8.656;2023-07-31T13:06:20;7.20;;;6.47;;
1765;SDS011;880;52.452;8.656;2023-07-31T13:08:47;7.00;;;6.50;;
1765;SDS011;880;52.452;8.656;2023-07-31T13:11:14;7.07;;;6.68;;
1765;SDS011;880;52.452;8.656;2023-07-31T13:13:41;6.75;;;6.28;;
1765;SDS011;880;52.452;8.656;2023-07-31T13:16:08;6.78;;;6.38;;
1765;SDS011;880;52.452;8.656;2023-07-31T13:18:35;6.93;;;6.53;;
1765;SDS011;880;52.452;8.656;2023-07-31T13:21:02;6.78;;;6.30;;
1765;SDS011;880;52.452;8.656;2023-07-31T13:23:29;7.03;;;6.40;;
1765;SDS011;880;52.452;8.656;2023-07-31T13:25:56;6.50;;;6.10;;
1765;SDS011;880;52.452;8.656;2023-07-31T13:28:23;6.28;;;5.93;;
1765;SDS011;880;52.452;8.656;2023-07-31T13:30:50;8.10;;;7.43;;
1765;SDS011;880;52.452;8.656;2023-07-31T13:33:17;6.95;;;6.50;;
1765;SDS011;880;52.452;8.656;2023-07-31T13:36:02;7.00;;;6.60;;
1765;SDS011;880;52.452;8.656;2023-07-31T13:38:29;7.75;;;7.25;;
1765;SDS011;880;52.452;8.656;2023-07-31T13:40:56;8.02;;;7.53;;
1765;SDS011;880;52.452;8.656;2023-07-31T13:43:23;7.28;;;6.75;;
1765;SDS011;880;52.452;8.656;2023-07-31T13:45:50;7.50;;;7.10;;
1765;SDS011;880;52.452;8.656;2023-07-31T13:48:17;7.88;;;7.38;;
1765;SDS011;880;52.452;8.656;2023-07-31T13:50:44;8.68;;;8.07;;
1765;SDS011;880;52.452;8.656;2023-07-31T13:53:11;7.93;;;7.35;;
1765;SDS011;880;52.452;8.656;2023-07-31T13:55:38;8.68;;;8.07;;
1765;SDS011;880;52.452;8.656;2023-07-31T13:58:05;8.00;;;7.40;;
1765;SDS011;880;52.452;8.656;2023-07-31T14:00:32;7.88;;;7.32;;
1765;SDS011;880;52.452;8.656;2023-07-31T14:02:59;7.20;;;6.70;;
1765;SDS011;880;52.452;8.656;2023-07-31T14:05:26;7.32;;;6.93;;
1765;SDS011;880;52.452;8.656;2023-07-31T14:07:53;7.40;;;6.90;;
1765;SDS011;880;52.452;8.656;2023-07-31T14:10:20;8.95;;;8.05;;
1765;SDS011;880;52.452;8.656;2023-07-31T14:12:53;9.60;;;8.75;;
1765;SDS011;880;52.452;8.656;2023-07-31T14:15:20;9.38;;;8.57;;
1765;SDS011;880;52.452;8.656;2023-07-31T14:17:47;9.27;;;8.63;;
1765;SDS011;880;52.452;8.656;2023-07-31T14:20:15;8.85;;;8.18;;
1765;SDS011;880;52.452;8.656;2023-07-31T14:22:42;10.45;;;9.50;;
1765;SDS011;880;52.452;8.656;2023-07-31T14:25:09;9.45;;;8.75;;
1765;SDS011;880;52.452;8.656;2023-07-31T14:27:36;10.55;;;9.65;;
1765;SDS011;880;52.452;8.656;2023-07-31T14:30:04;9.77;;;8.88;;
1765;SDS011;880;52.452;8.656;2023-07-31T14:32:31;9.23;;;8.32;;
1765;SDS011;880;52.452;8.656;2023-07-31T14:34:58;9.50;;;8.70;;
1765;SDS011;880;52.452;8.656;2023-07-31T14:37:25;9.35;;;8.50;;
1765;SDS011;880;52.452;8.656;2023-07-31T14:39:54;9.68;;;8.90;;
1765;SDS011;880;52.452;8.656;2023-07-31T14:42:22;11.70;;;9.82;;
1765;SDS011;880;52.452;8.656;2023-07-31T14:44:49;9.25;;;8.35;;
1765;SDS011;880;52.452;8.656;2023-07-31T14:47:16;10.93;;;8.23;;
1765;SDS011;880;52.452;8.656;2023-07-31T14:49:43;7.97;;;7.18;;
1765;SDS011;880;52.452;8.656;2023-07-31T14:52:10;9.38;;;8.60;;
1765;SDS011;880;52.452;8.656;2023-07-31T14:54:37;9.95;;;9.15;;
1765;SDS011;880;52.452;8.656;2023-07-31T14:57:04;10.38;;;9.65;;
1765;SDS011;880;52.452;8.656;2023-07-31T14:59:32;8.18;;;7.57;;
1765;SDS011;880;52.452;8.656;2023-07-31T15:01:59;8.55;;;7.93;;
1765;SDS011;880;52.452;8.656;2023-07-31T15:04:26;8.68;;;8.07;;
1765;SDS011;880;52.452;8.656;2023-07-31T15:06:53;11.82;;;10.85;;
1765;SDS011;880;52.452;8.656;2023-07-31T15:09:20;9.48;;;8.80;;
1765;SDS011;880;52.452;8.656;2023-07-31T15:11:47;8.50;;;7.80;;
1765;SDS011;880;52.452;8.656;2023-07-31T15:14:14;8.13;;;7.53;;
1765;SDS011;880;52.452;8.656;2023-07-31T15:16:42;8.60;;;8.00;;
1765;SDS011;880;52.452;8.656;2023-07-31T15:19:10;9.63;;;8.85;;
1765;SDS011;880;52.452;8.656;2023-07-31T15:21:37;8.68;;;7.97;;
1765;SDS011;880;52.452;8.656;2023-07-31T15:24:05;8.85;;;8.13;;
1765;SDS011;880;52.452;8.656;2023-07-31T15:26:33;8.80;;;7.95;;
1765;SDS011;880;52.452;8.656;2023-07-31T15:29:01;8.13;;;7.53;;
1765;SDS011;880;52.452;8.656;2023-07-31T15:31:35;8.48;;;7.88;;
1765;SDS011;880;52.452;8.656;2023-07-31T15:34:02;8.93;;;8.30;;
1765;SDS011;880;52.452;8.656;2023-07-31T15:36:29;8.70;;;8.00;;
1765;SDS011;880;52.452;8.656;2023-07-31T15:38:57;8.75;;;8.13;;
1765;SDS011;880;52.452;8.656;2023-07-31T15:41:24;7.18;;;6.68;;
1765;SDS011;880;52.452;8.656;2023-07-31T15:43:51;9.88;;;9.07;;
1765;SDS011;880;52.452;8.656;2023-07-31T15:46:18;8.18;;;7.57;;
1765;SDS011;880;52.452;8.656;2023-07-31T15:48:45;8.35;;;7.75;;
1765;SDS011;880;52.452;8.656;2023-07-31T15:51:13;8.98;;;8.38;;
1765;SDS011;880;52.452;8.656;2023-07-31T15:53:40;10.02;;;9.20;;
1765;SDS011;880;52.452;8.656;2023-07-31T15:56:07;8.35;;;7.75;;
1765;SDS011;880;52.452;8.656;2023-07-31T15:58:34;9.35;;;8.65;;